createdAt,value
2022-11-29T00:02:11.597Z,99616.94
2022-11-29T00:04:37.855Z,99608.97
2022-11-29T00:07:04.065Z,99613.94
2022-11-29T00:09:30.269Z,99613.00
2022-11-29T00:11:56.494Z,99595.16
2022-11-29T00:14:22.888Z,99602.91
2022-11-29T00:16:53.544Z,99593.59
2022-11-29T00:19:19.844Z,99583.28
2022-11-29T00:21:46.058Z,99573.53
2022-11-29T00:24:12.252Z,99568.16
2022-11-29T00:26:38.458Z,99561.84
2022-11-29T00:29:04.699Z,99553.91
2022-11-29T00:31:31.141Z,99552.03
2022-11-29T00:33:57.668Z,99545.97
2022-11-29T00:36:23.880Z,99537.66
2022-11-29T00:38:50.077Z,99522.41
2022-11-29T00:41:16.302Z,99519.03
2022-11-29T00:43:42.519Z,99507.16
2022-11-29T00:46:08.993Z,99496.19
2022-11-29T00:48:35.267Z,99494.16
2022-11-29T00:51:01.722Z,99489.81
2022-11-29T00:53:27.941Z,99481.50
2022-11-29T00:55:54.152Z,99476.22
2022-11-29T00:58:20.366Z,99468.25
2022-11-29T01:00:46.593Z,99461.31
2022-11-29T01:03:12.801Z,99457.72
2022-11-29T01:05:39.010Z,99463.16
2022-11-29T01:08:05.245Z,99464.47
2022-11-29T01:10:31.448Z,99462.09
2022-11-29T01:12:57.666Z,99462.09
2022-11-29T01:15:23.873Z,99449.78
2022-11-29T01:17:50.099Z,99451.56
2022-11-29T01:20:16.309Z,99440.69
2022-11-29T01:22:42.536Z,99434.63
2022-11-29T01:25:08.874Z,99431.03
2022-11-29T01:27:35.096Z,99417.34
2022-11-29T01:30:01.292Z,99414.34
2022-11-29T01:32:27.499Z,99408.19
2022-11-29T01:34:53.710Z,99407.69
2022-11-29T01:37:19.917Z,99402.53
2022-11-29T01:39:46.122Z,99389.44
2022-11-29T01:42:12.624Z,99379.56
2022-11-29T01:44:38.772Z,99371.25
2022-11-29T01:47:05.058Z,99363.09
2022-11-29T01:49:35.590Z,99361.53
2022-11-29T01:52:01.746Z,99350.84
2022-11-29T01:54:28.291Z,99345.47
2022-11-29T01:56:54.498Z,99332.56
2022-11-29T01:59:21.880Z,99324.22
2022-11-29T02:01:48.089Z,99341.25
2022-11-29T02:04:14.298Z,99341.47
2022-11-29T02:06:40.495Z,99337.31
2022-11-29T02:09:16.225Z,99338.66
2022-11-29T02:11:47.574Z,99335.88
2022-11-29T02:14:25.950Z,99337.72
2022-11-29T02:17:12.388Z,99343.03
2022-11-29T02:19:56.759Z,99338.91
2022-11-29T02:22:30.829Z,99333.59
2022-11-29T02:25:00.009Z,99330.22
2022-11-29T02:27:38.065Z,99323.16
2022-11-29T02:30:08.780Z,99325.16
2022-11-29T02:33:13.686Z,99318.66
2022-11-29T02:36:15.066Z,99312.50
2022-11-29T02:38:59.270Z,99303.19
2022-11-29T02:41:39.210Z,99309.94
2022-11-29T02:44:11.532Z,99307.91
2022-11-29T02:47:00.272Z,99315.31
2022-11-29T02:49:45.313Z,99317.53
2022-11-29T02:52:13.148Z,99312.81
2022-11-29T02:54:45.088Z,99307.44
2022-11-29T02:57:18.834Z,99313.50
2022-11-29T02:59:57.151Z,99323.03
2022-11-29T03:02:26.571Z,99318.66
2022-11-29T03:05:13.062Z,99335.34
2022-11-29T03:07:51.485Z,99339.50
2022-11-29T03:10:28.639Z,99335.78
2022-11-29T03:12:54.857Z,99334.78
2022-11-29T03:15:21.067Z,99346.44
2022-11-29T03:18:06.050Z,99351.25
2022-11-29T03:20:45.536Z,99357.53
2022-11-29T03:23:18.884Z,99361.69
2022-11-29T03:25:59.167Z,99365.47
2022-11-29T03:28:37.169Z,99371.44
2022-11-29T03:31:11.487Z,99381.16
2022-11-29T03:33:56.605Z,99390.25
2022-11-29T03:36:52.141Z,99392.59
2022-11-29T03:39:18.927Z,99395.19
2022-11-29T03:41:58.765Z,99390.81
2022-11-29T03:44:30.708Z,99400.44
2022-11-29T03:46:56.865Z,99400.66
2022-11-29T03:49:28.011Z,99396.84
2022-11-29T03:52:00.169Z,99392.84
2022-11-29T03:54:38.752Z,99399.44
2022-11-29T03:57:05.639Z,99391.13
2022-11-29T03:59:46.280Z,99392.47
2022-11-29T04:02:12.509Z,99393.28
2022-11-29T04:04:52.821Z,99396.63
2022-11-29T04:07:25.187Z,99403.78
2022-11-29T04:10:02.910Z,99397.63
2022-11-29T04:12:35.766Z,99392.56
2022-11-29T04:15:05.035Z,99393.72
2022-11-29T04:17:31.197Z,99400.66
2022-11-29T04:20:16.032Z,99400.09
2022-11-29T04:23:02.313Z,99391.03
2022-11-29T04:25:32.581Z,99391.91
2022-11-29T04:28:19.397Z,99387.53
2022-11-29T04:30:56.593Z,99387.19
2022-11-29T04:33:22.809Z,99388.56
2022-11-29T04:35:52.092Z,99395.72
2022-11-29T04:38:25.950Z,99383.25
2022-11-29T04:41:01.241Z,99379.81
2022-11-29T04:43:30.414Z,99378.03
2022-11-29T04:46:02.298Z,99385.41
2022-11-29T04:48:37.712Z,99390.13
2022-11-29T04:51:17.345Z,99385.97
2022-11-29T04:53:51.924Z,99401.78
2022-11-29T04:56:39.831Z,99413.88
2022-11-29T04:59:05.977Z,99410.16
2022-11-29T05:01:32.171Z,99411.75
2022-11-29T05:04:01.348Z,99414.09
2022-11-29T05:06:29.134Z,99415.88
2022-11-29T05:09:11.392Z,99406.94
2022-11-29T05:11:56.445Z,99420.59
2022-11-29T05:14:25.412Z,99428.69
2022-11-29T05:17:12.242Z,99432.72
2022-11-29T05:20:04.679Z,99425.97
2022-11-29T05:22:48.809Z,99429.34
2022-11-29T05:25:24.298Z,99435.53
2022-11-29T05:27:52.515Z,99438.44
2022-11-29T05:30:22.287Z,99441.56
2022-11-29T05:32:48.460Z,99446.81
2022-11-29T05:35:33.587Z,99446.25
2022-11-29T05:38:14.067Z,99434.59
2022-11-29T05:40:52.082Z,99432.28
2022-11-29T05:43:22.225Z,99436.72
2022-11-29T05:46:01.892Z,99428.22
2022-11-29T05:48:42.661Z,99434.72
2022-11-29T05:51:22.009Z,99429.00
2022-11-29T05:54:04.709Z,99436.16
2022-11-29T05:56:49.757Z,99434.59
2022-11-29T05:59:18.191Z,99433.34
2022-11-29T06:01:47.494Z,99431.22
2022-11-29T06:04:15.919Z,99430.69
2022-11-29T06:06:43.481Z,99444.88
2022-11-29T06:09:13.405Z,99446.69
2022-11-29T06:11:44.859Z,99439.09
2022-11-29T06:14:21.780Z,99450.59
2022-11-29T06:16:55.176Z,99438.16
2022-11-29T06:19:43.576Z,99436.16
2022-11-29T06:22:21.616Z,99434.94
2022-11-29T06:24:53.917Z,99438.16
2022-11-29T06:27:49.459Z,99429.84
2022-11-29T06:30:16.392Z,99437.38
2022-11-29T06:32:54.181Z,99432.78
2022-11-29T06:35:20.338Z,99437.38
2022-11-29T06:37:49.514Z,99443.00
2022-11-29T06:40:15.733Z,99445.69
2022-11-29T06:42:42.021Z,99436.16
2022-11-29T06:45:09.856Z,99448.03
2022-11-29T06:47:38.375Z,99449.81
2022-11-29T06:50:16.902Z,99454.81
2022-11-29T06:52:48.903Z,99462.97
2022-11-29T06:55:15.074Z,99467.34
2022-11-29T06:57:47.497Z,99466.66
2022-11-29T07:00:20.398Z,99460.91
2022-11-29T07:02:52.585Z,99464.06
2022-11-29T07:05:25.677Z,99465.41
2022-11-29T07:07:52.827Z,99471.38
2022-11-29T07:10:19.294Z,99473.69
2022-11-29T07:12:45.947Z,99470.94
2022-11-29T07:15:15.916Z,99474.38
2022-11-29T07:17:45.106Z,99465.84
2022-11-29T07:20:23.553Z,99468.22
2022-11-29T07:22:49.716Z,99469.22
2022-11-29T07:25:24.902Z,99465.06
2022-11-29T07:28:03.329Z,99462.50
2022-11-29T07:30:33.152Z,99470.56
2022-11-29T07:33:00.478Z,99463.38
2022-11-29T07:35:45.961Z,99468.91
2022-11-29T07:38:12.186Z,99470.94
2022-11-29T07:40:57.102Z,99478.84
2022-11-29T07:43:45.214Z,99475.44
2022-11-29T07:46:11.444Z,99479.78
2022-11-29T07:48:37.673Z,99479.78
2022-11-29T07:51:03.903Z,99481.94
2022-11-29T07:53:30.108Z,99478.56
2022-11-29T07:55:56.871Z,99489.88
2022-11-29T07:58:23.100Z,99490.81
2022-11-29T08:00:49.519Z,99496.97
2022-11-29T08:03:15.767Z,99503.50
2022-11-29T08:05:44.609Z,99502.06
2022-11-29T08:08:10.821Z,99515.53
2022-11-29T08:10:37.021Z,99511.59
2022-11-29T08:13:03.220Z,99508.16
2022-11-29T08:15:29.433Z,99510.16
2022-11-29T08:17:55.668Z,99517.31
2022-11-29T08:20:21.879Z,99522.13
2022-11-29T08:22:57.629Z,99531.66
2022-11-29T08:25:24.039Z,99524.84
2022-11-29T08:27:50.240Z,99527.56
2022-11-29T08:30:16.530Z,99534.72
2022-11-29T08:32:48.454Z,99535.84
2022-11-29T08:35:17.675Z,99544.47
2022-11-29T08:37:43.894Z,99551.75
2022-11-29T08:40:10.378Z,99555.69
2022-11-29T08:42:36.597Z,99551.75
2022-11-29T08:45:02.810Z,99562.34
2022-11-29T08:47:29.032Z,99580.69
2022-11-29T08:49:55.252Z,99581.41
2022-11-29T08:52:21.469Z,99577.03
2022-11-29T08:54:47.936Z,99567.50
2022-11-29T08:57:39.269Z,99565.28
2022-11-29T09:00:00.785Z,99571.44
2022-11-29T09:02:27.035Z,99576.59
2022-11-29T09:04:53.257Z,99573.88
2022-11-29T09:07:19.510Z,99575.16
2022-11-29T09:09:45.834Z,99567.94
2022-11-29T09:12:12.041Z,99578.03
2022-11-29T09:14:38.245Z,99583.41
2022-11-29T09:17:04.479Z,99593.97
2022-11-29T09:19:30.681Z,99589.69
2022-11-29T09:21:56.900Z,99597.69
2022-11-29T09:24:23.198Z,99603.97
2022-11-29T09:26:49.422Z,99612.91
2022-11-29T09:29:15.949Z,99620.81
2022-11-29T09:31:42.342Z,99622.97
2022-11-29T09:34:08.573Z,99635.59
2022-11-29T09:36:34.776Z,99641.53
2022-11-29T09:39:01.223Z,99633.81
2022-11-29T09:41:32.132Z,99651.06
2022-11-29T09:44:01.948Z,99656.81
2022-11-29T09:46:45.450Z,99678.59
2022-11-29T09:49:20.841Z,99689.56
2022-11-29T09:51:52.775Z,99689.56
2022-11-29T09:54:24.403Z,99703.88
2022-11-29T09:56:51.399Z,99719.63
2022-11-29T09:59:40.662Z,99728.84
2022-11-29T10:02:21.062Z,99728.72
2022-11-29T10:04:49.245Z,99732.31
2022-11-29T10:07:23.904Z,99740.00
2022-11-29T10:09:51.007Z,99742.81
2022-11-29T10:12:18.819Z,99755.50
2022-11-29T10:14:46.264Z,99754.50
2022-11-29T10:17:12.640Z,99774.34
2022-11-29T10:19:46.586Z,99766.31
2022-11-29T10:22:21.363Z,99772.81
2022-11-29T10:24:49.151Z,99779.44
2022-11-29T10:27:18.336Z,99787.22
2022-11-29T10:29:44.550Z,99788.41
2022-11-29T10:32:13.779Z,99803.69
2022-11-29T10:34:39.984Z,99805.66
2022-11-29T10:37:06.199Z,99799.28
2022-11-29T10:39:43.390Z,99806.16
2022-11-29T10:42:14.483Z,99807.72
2022-11-29T10:44:40.680Z,99807.13
2022-11-29T10:47:10.970Z,99810.41
2022-11-29T10:49:37.449Z,99807.38
2022-11-29T10:52:03.663Z,99815.34
2022-11-29T10:54:32.120Z,99822.31
2022-11-29T10:56:59.219Z,99825.75
2022-11-29T10:59:26.229Z,99823.09
2022-11-29T11:01:52.550Z,99819.44
2022-11-29T11:04:26.460Z,99827.38
2022-11-29T11:06:53.186Z,99820.41
2022-11-29T11:09:20.001Z,99824.69
2022-11-29T11:11:50.172Z,99822.31
2022-11-29T11:14:21.315Z,99817.34
2022-11-29T11:16:47.535Z,99829.84
2022-11-29T11:19:32.905Z,99817.38
2022-11-29T11:21:59.723Z,99829.72
2022-11-29T11:24:29.811Z,99833.16
2022-11-29T11:26:56.008Z,99835.13
2022-11-29T11:29:24.211Z,99848.44
2022-11-29T11:31:54.810Z,99840.16
2022-11-29T11:34:36.906Z,99848.41
2022-11-29T11:37:15.523Z,99834.13
2022-11-29T11:39:42.261Z,99848.81
2022-11-29T11:42:10.401Z,99853.91
2022-11-29T11:44:47.481Z,99861.03
2022-11-29T11:47:15.698Z,99858.94
2022-11-29T11:49:49.250Z,99872.56
2022-11-29T11:52:39.614Z,99864.03
2022-11-29T11:55:36.302Z,99874.91
2022-11-29T11:58:10.139Z,99870.88
2022-11-29T12:01:02.453Z,99865.97
2022-11-29T12:03:24.058Z,99877.41
2022-11-29T12:05:50.282Z,99874.84
2022-11-29T12:08:16.595Z,99869.44
2022-11-29T12:10:42.854Z,99878.63
2022-11-29T12:13:14.504Z,99883.56
2022-11-29T12:15:40.749Z,99880.19
2022-11-29T12:18:14.511Z,99877.41
2022-11-29T12:20:51.048Z,99874.44
2022-11-29T12:23:26.380Z,99884.56
2022-11-29T12:25:57.025Z,99878.81
2022-11-29T12:28:25.515Z,99883.75
2022-11-29T12:30:57.759Z,99884.34
2022-11-29T12:33:28.669Z,99877.81
2022-11-29T12:35:58.297Z,99878.38
2022-11-29T12:38:41.049Z,99882.47
2022-11-29T12:41:13.449Z,99896.03
2022-11-29T12:43:51.790Z,99904.34
2022-11-29T12:46:24.509Z,99905.13
2022-11-29T12:49:26.253Z,99908.31
2022-11-29T12:52:01.332Z,99922.41
2022-11-29T12:54:33.469Z,99919.41
2022-11-29T12:57:38.116Z,99926.63
2022-11-29T13:00:06.943Z,99938.28
2022-11-29T13:02:51.264Z,99939.44
2022-11-29T13:05:26.376Z,99948.59
2022-11-29T13:07:59.012Z,99959.53
2022-11-29T13:10:28.258Z,99966.47
2022-11-29T13:12:54.448Z,99968.06
2022-11-29T13:15:29.134Z,99978.53
2022-11-29T13:17:55.373Z,99961.25
2022-11-29T13:20:30.674Z,99965.41
2022-11-29T13:22:56.840Z,99978.16
2022-11-29T13:25:24.464Z,99977.41
2022-11-29T13:27:54.552Z,99979.38
2022-11-29T13:30:20.773Z,99986.16
2022-11-29T13:32:52.492Z,100015.72
2022-11-29T13:35:23.138Z,100017.69
2022-11-29T13:37:55.295Z,100027.44
2022-11-29T13:40:21.823Z,100015.88
2022-11-29T13:43:06.786Z,100026.25
2022-11-29T13:45:40.893Z,100018.09
2022-11-29T13:48:27.621Z,100013.94
2022-11-29T13:50:54.895Z,100021.84
2022-11-29T13:53:21.602Z,100028.41
2022-11-29T13:55:55.474Z,100030.25
2022-11-29T13:58:41.921Z,100029.25
2022-11-29T14:01:14.221Z,100029.84
2022-11-29T14:04:06.825Z,100024.94
2022-11-29T14:06:33.894Z,100027.91
2022-11-29T14:09:19.600Z,100033.84
2022-11-29T14:12:03.210Z,100037.63
2022-11-29T14:14:37.331Z,100052.91
2022-11-29T14:17:04.434Z,100043.59
2022-11-29T14:19:33.723Z,100046.97
2022-11-29T14:22:00.305Z,100055.34
2022-11-29T14:24:32.232Z,100044.03
2022-11-29T14:27:07.217Z,100063.66
2022-11-29T14:29:48.533Z,100060.28
2022-11-29T14:32:24.462Z,100065.03
2022-11-29T14:35:02.718Z,100065.25
2022-11-29T14:37:49.182Z,100067.47
2022-11-29T14:40:18.524Z,100068.09
2022-11-29T14:42:45.587Z,100064.88
2022-11-29T14:45:21.021Z,100066.47
2022-11-29T14:47:47.966Z,100071.84
2022-11-29T14:50:30.682Z,100065.91
2022-11-29T14:52:56.898Z,100064.13
2022-11-29T14:55:26.150Z,100056.56
2022-11-29T14:57:53.181Z,100060.34
2022-11-29T15:00:29.308Z,100052.25
2022-11-29T15:03:14.002Z,100054.41
2022-11-29T15:05:41.572Z,100057.41
2022-11-29T15:08:17.594Z,100063.31
2022-11-29T15:10:46.781Z,100061.34
2022-11-29T15:13:13.595Z,100054.03
2022-11-29T15:15:42.811Z,100051.03
2022-11-29T15:18:32.122Z,100045.28
2022-11-29T15:20:58.303Z,100052.00
2022-11-29T15:23:24.526Z,100048.66
2022-11-29T15:25:51.838Z,100051.03
2022-11-29T15:28:19.704Z,100053.03
2022-11-29T15:30:45.912Z,100057.78
2022-11-29T15:33:22.362Z,100052.63
2022-11-29T15:35:49.240Z,100060.34
2022-11-29T15:38:19.332Z,100063.94
2022-11-29T15:40:52.261Z,100066.91
2022-11-29T15:43:22.873Z,100059.34
2022-11-29T15:45:50.049Z,100073.25
2022-11-29T15:48:16.264Z,100067.09
2022-11-29T15:50:46.710Z,100059.56
2022-11-29T15:53:15.626Z,100061.94
2022-11-29T15:55:42.542Z,100063.50
2022-11-29T15:58:09.384Z,100072.06
2022-11-29T16:00:35.637Z,100067.69
2022-11-29T16:03:02.266Z,100071.84
2022-11-29T16:05:31.490Z,100072.25
2022-11-29T16:07:58.559Z,100069.88
2022-11-29T16:10:27.222Z,100066.91
2022-11-29T16:12:57.620Z,100082.97
2022-11-29T16:15:28.126Z,100078.63
2022-11-29T16:17:54.434Z,100082.00
2022-11-29T16:20:24.165Z,100090.91
2022-11-29T16:23:08.825Z,100091.69
2022-11-29T16:25:37.733Z,100091.91
2022-11-29T16:28:04.204Z,100085.16
2022-11-29T16:30:30.498Z,100086.38
2022-11-29T16:33:00.049Z,100091.16
2022-11-29T16:35:26.911Z,100091.16
2022-11-29T16:37:53.139Z,100087.19
2022-11-29T16:40:23.606Z,100092.91
2022-11-29T16:43:18.500Z,100095.69
2022-11-29T16:45:44.751Z,100085.41
2022-11-29T16:48:26.867Z,100086.41
2022-11-29T16:51:11.461Z,100093.94
2022-11-29T16:53:38.232Z,100100.22
2022-11-29T16:56:04.858Z,100097.09
2022-11-29T16:58:31.340Z,100105.25
2022-11-29T17:00:57.614Z,100103.63
2022-11-29T17:03:23.900Z,100111.97
2022-11-29T17:05:50.230Z,100105.41
2022-11-29T17:08:16.508Z,100120.91
2022-11-29T17:10:42.761Z,100110.19
2022-11-29T17:13:11.009Z,100119.72
2022-11-29T17:15:37.224Z,100122.50
2022-11-29T17:18:03.469Z,100116.56
2022-11-29T17:20:29.782Z,100112.38
2022-11-29T17:22:55.999Z,100112.19
2022-11-29T17:25:22.411Z,100120.31
2022-11-29T17:27:48.722Z,100120.13
2022-11-29T17:30:15.037Z,100125.69
2022-11-29T17:32:41.289Z,100115.78
2022-11-29T17:35:07.730Z,100114.78
2022-11-29T17:37:34.018Z,100110.19
2022-11-29T17:40:00.333Z,100115.56
2022-11-29T17:42:26.574Z,100111.19
2022-11-29T17:44:52.903Z,100109.78
2022-11-29T17:47:19.277Z,100118.13
2022-11-29T17:49:45.953Z,100125.28
2022-11-29T17:52:12.453Z,100122.91
2022-11-29T17:54:38.683Z,100136.78
2022-11-29T17:57:04.956Z,100147.69
2022-11-29T17:59:31.169Z,100143.50
2022-11-29T18:01:57.386Z,100136.56
2022-11-29T18:04:23.602Z,100145.72
2022-11-29T18:06:50.417Z,100143.94
2022-11-29T18:09:16.921Z,100144.13
2022-11-29T18:11:48.006Z,100149.69
2022-11-29T18:14:15.976Z,100153.25
2022-11-29T18:16:42.302Z,100152.47
2022-11-29T18:19:10.109Z,100147.28
2022-11-29T18:21:36.366Z,100152.84
2022-11-29T18:24:02.995Z,100156.81
2022-11-29T18:26:29.382Z,100151.47
2022-11-29T18:28:55.591Z,100146.88
2022-11-29T18:31:22.447Z,100146.31
2022-11-29T18:33:49.350Z,100152.63
2022-11-29T18:36:16.314Z,100150.25
2022-11-29T18:38:43.042Z,100159.59
2022-11-29T18:41:16.191Z,100165.94
2022-11-29T18:43:42.415Z,100167.75
2022-11-29T18:46:18.266Z,100158.63
2022-11-29T18:48:44.664Z,100164.75
2022-11-29T18:51:11.972Z,100166.53
2022-11-29T18:53:38.499Z,100163.78
2022-11-29T18:56:08.277Z,100154.63
2022-11-29T18:58:34.494Z,100158.59
2022-11-29T19:01:03.737Z,100163.78
2022-11-29T19:03:30.535Z,100168.94
2022-11-29T19:05:56.746Z,100166.16
2022-11-29T19:08:22.949Z,100163.78
2022-11-29T19:10:49.157Z,100158.81
2022-11-29T19:13:15.368Z,100155.22
2022-11-29T19:15:41.622Z,100163.16
2022-11-29T19:18:07.860Z,100161.41
2022-11-29T19:20:34.392Z,100162.16
2022-11-29T19:23:00.885Z,100157.03
2022-11-29T19:25:27.104Z,100159.63
2022-11-29T19:27:53.336Z,100145.50
2022-11-29T19:30:19.542Z,100158.63
2022-11-29T19:32:45.745Z,100149.50
2022-11-29T19:35:11.943Z,100140.56
2022-11-29T19:37:38.167Z,100150.09
2022-11-29T19:40:04.624Z,100140.38
2022-11-29T19:42:30.843Z,100147.28
2022-11-29T19:47:43.249Z,100148.69
2022-11-29T19:50:09.506Z,100142.31
2022-11-29T19:52:35.731Z,100149.28
2022-11-29T19:55:01.962Z,100150.66
2022-11-29T19:57:28.170Z,100150.69
2022-11-29T19:59:54.385Z,100143.16
2022-11-29T20:02:20.679Z,100140.38
2022-11-29T20:04:46.934Z,100146.31
2022-11-29T20:07:13.132Z,100151.69
2022-11-29T20:09:39.342Z,100145.53
2022-11-29T20:12:05.588Z,100149.69
2022-11-29T20:14:31.816Z,100143.53
2022-11-29T20:16:58.023Z,100149.28
2022-11-29T20:19:24.242Z,100138.78
2022-11-29T20:21:50.449Z,100141.75
2022-11-29T20:24:16.657Z,100150.66
2022-11-29T20:26:43.957Z,100140.38
2022-11-29T20:29:10.178Z,100147.31
2022-11-29T20:31:36.850Z,100139.00
2022-11-29T20:34:03.159Z,100136.59
2022-11-29T20:36:42.826Z,100143.72
2022-11-29T20:39:27.772Z,100151.28
2022-11-29T20:41:56.833Z,100145.91
2022-11-29T20:44:34.083Z,100136.41
2022-11-29T20:47:00.417Z,100135.00
2022-11-29T20:49:26.688Z,100131.66
2022-11-29T20:51:55.407Z,100117.97
2022-11-29T20:54:21.630Z,100109.84
2022-11-29T20:56:47.825Z,100098.94
2022-11-29T20:59:14.034Z,100091.94
2022-11-29T21:01:40.288Z,100083.66
2022-11-29T21:04:06.649Z,100079.31
2022-11-29T21:06:36.021Z,100071.53
2022-11-29T21:09:02.232Z,100055.09
2022-11-29T21:11:28.485Z,100052.31
2022-11-29T21:13:54.705Z,100049.72
2022-11-29T21:16:26.732Z,100046.16
2022-11-29T21:18:53.097Z,100038.41
2022-11-29T21:21:22.471Z,100038.00
2022-11-29T21:23:54.853Z,100037.03
2022-11-29T21:26:50.569Z,100033.44
2022-11-29T21:29:17.537Z,100026.72
2022-11-29T21:31:44.249Z,100027.88
2022-11-29T21:34:10.497Z,100025.91
2022-11-29T21:36:36.797Z,100024.13
2022-11-29T21:39:05.324Z,100022.34
2022-11-29T21:41:31.773Z,100019.19
2022-11-29T21:44:06.593Z,100009.44
2022-11-29T21:46:33.685Z,100010.44
2022-11-29T21:48:59.941Z,100010.84
2022-11-29T21:51:26.161Z,100007.06
2022-11-29T21:53:52.368Z,99999.53
2022-11-29T21:56:18.581Z,100004.91
2022-11-29T21:58:44.797Z,99997.34
2022-11-29T22:01:12.062Z,100009.84
2022-11-29T22:03:38.259Z,99994.59
2022-11-29T22:06:10.563Z,99999.91
2022-11-29T22:08:37.086Z,99991.59
2022-11-29T22:11:03.726Z,99977.91
2022-11-29T22:13:29.932Z,99977.69
2022-11-29T22:16:03.145Z,99980.06
2022-11-29T22:18:29.349Z,99989.44
2022-11-29T22:20:55.555Z,99982.06
2022-11-29T22:23:21.749Z,99970.75
2022-11-29T22:25:47.957Z,99969.59
2022-11-29T22:28:14.170Z,99970.38
2022-11-29T22:30:40.383Z,99959.44
2022-11-29T22:33:11.820Z,99952.13
2022-11-29T22:35:43.174Z,99942.59
2022-11-29T22:38:09.385Z,99936.84
2022-11-29T22:40:35.601Z,99921.38
2022-11-29T22:43:01.806Z,99917.22
2022-11-29T22:45:28.027Z,99906.91
2022-11-29T22:47:54.236Z,99898.16
2022-11-29T22:50:20.461Z,99892.22
2022-11-29T22:52:46.693Z,99890.00
2022-11-29T22:55:12.935Z,99893.59
2022-11-29T22:57:39.132Z,99890.00
2022-11-29T23:00:05.739Z,99886.00
2022-11-29T23:02:32.035Z,99892.94
2022-11-29T23:04:58.273Z,99898.53
2022-11-29T23:07:24.503Z,99904.69
2022-11-29T23:09:50.796Z,99893.38
2022-11-29T23:12:17.011Z,99891.81
2022-11-29T23:14:43.306Z,99888.66
2022-11-29T23:17:09.701Z,99885.84
2022-11-29T23:19:35.900Z,99884.25
2022-11-29T23:22:02.117Z,99882.47
2022-11-29T23:24:28.805Z,99896.97
2022-11-29T23:26:55.031Z,99879.31
2022-11-29T23:29:21.231Z,99885.47
2022-11-29T23:31:47.529Z,99876.34
2022-11-29T23:34:13.839Z,99879.50
2022-11-29T23:36:40.138Z,99883.69
2022-11-29T23:39:06.460Z,99872.38
2022-11-29T23:41:33.136Z,99871.38
2022-11-29T23:43:59.374Z,99853.75
2022-11-29T23:46:25.627Z,99847.00
2022-11-29T23:49:02.931Z,99838.75
2022-11-29T23:51:29.186Z,99815.13
2022-11-29T23:53:55.466Z,99806.97
2022-11-29T23:56:21.809Z,99788.69
2022-11-29T23:58:48.031Z,99789.06
